createdAt,value
2022-10-06T00:00:58.158Z,7.00
2022-10-06T00:03:45.429Z,7.06
2022-10-06T00:06:21.512Z,7.11
2022-10-06T00:09:08.409Z,7.11
2022-10-06T00:11:41.775Z,7.12
2022-10-06T00:14:28.437Z,7.15
2022-10-06T00:17:01.506Z,7.17
2022-10-06T00:19:48.413Z,7.17
2022-10-06T00:22:21.480Z,7.22
2022-10-06T00:25:08.412Z,7.27
2022-10-06T00:27:43.478Z,7.29
2022-10-06T00:30:32.455Z,7.33
2022-10-06T00:33:15.421Z,7.36
2022-10-06T00:36:07.434Z,7.38
2022-10-06T00:38:48.427Z,7.42
2022-10-06T00:41:35.411Z,7.45
2022-10-06T00:44:15.445Z,7.47
2022-10-06T00:47:09.428Z,7.46
2022-10-06T00:50:04.423Z,7.45
2022-10-06T00:52:51.430Z,7.43
2022-10-06T00:55:31.663Z,7.41
2022-10-06T00:58:20.434Z,7.39
2022-10-06T01:01:02.448Z,7.34
2022-10-06T01:04:04.433Z,7.33
2022-10-06T01:07:02.453Z,7.32
2022-10-06T01:09:56.458Z,7.24
2022-10-06T01:12:50.456Z,7.23
2022-10-06T01:15:37.524Z,7.19
2022-10-06T01:18:17.759Z,7.15
2022-10-06T01:21:16.474Z,7.08
2022-10-06T01:23:50.072Z,7.07
2022-10-06T01:26:39.437Z,7.02
2022-10-06T01:29:12.533Z,7.03
2022-10-06T01:31:59.465Z,7.01
2022-10-06T01:34:32.556Z,6.96
2022-10-06T01:37:19.454Z,6.93
2022-10-06T01:39:52.657Z,6.88
2022-10-06T01:42:40.470Z,6.82
2022-10-06T01:45:14.511Z,6.80
2022-10-06T01:48:01.479Z,6.76
2022-10-06T01:50:34.582Z,6.73
2022-10-06T01:53:21.431Z,6.73
2022-10-06T01:55:54.534Z,6.73
2022-10-06T01:58:41.451Z,6.71
2022-10-06T02:01:22.514Z,6.72
2022-10-06T02:04:16.525Z,6.75
2022-10-06T02:07:10.511Z,6.77
2022-10-06T02:10:04.476Z,6.79
2022-10-06T02:12:51.465Z,6.84
2022-10-06T02:15:26.931Z,6.88
2022-10-06T02:18:13.472Z,6.90
2022-10-06T02:20:53.488Z,6.86
2022-10-06T02:23:47.468Z,6.84
2022-10-06T02:26:41.486Z,6.81
2022-10-06T02:29:35.480Z,6.76
2022-10-06T02:32:22.475Z,6.73
2022-10-06T02:35:02.464Z,6.68
2022-10-06T02:37:56.460Z,6.67
2022-10-06T02:40:43.499Z,6.66
2022-10-06T02:43:16.581Z,6.65
2022-10-06T02:46:05.540Z,6.64
2022-10-06T02:48:42.322Z,6.63
2022-10-06T02:51:29.478Z,6.61
2022-10-06T02:54:09.490Z,6.60
2022-10-06T02:57:03.463Z,6.59
2022-10-06T02:59:50.506Z,6.56
2022-10-06T03:02:30.618Z,6.56
2022-10-06T03:05:17.502Z,6.53
2022-10-06T03:07:57.496Z,6.51
2022-10-06T03:10:44.500Z,6.52
2022-10-06T03:13:17.570Z,6.48
2022-10-06T03:16:04.522Z,6.44
2022-10-06T03:18:37.575Z,6.43
2022-10-06T03:21:25.506Z,6.42
2022-10-06T03:23:59.568Z,6.38
2022-10-06T03:26:48.505Z,6.36
2022-10-06T03:29:28.478Z,6.35
2022-10-06T03:32:15.523Z,6.33
2022-10-06T03:34:48.570Z,6.35
2022-10-06T03:37:35.485Z,6.36
2022-10-06T03:40:08.609Z,6.36
2022-10-06T03:42:55.489Z,6.38
2022-10-06T03:45:35.535Z,6.40
2022-10-06T03:48:29.777Z,6.41
2022-10-06T03:51:45.500Z,6.42
2022-10-06T03:54:32.509Z,6.43
2022-10-06T03:57:05.624Z,6.43
2022-10-06T03:59:52.611Z,6.46
2022-10-06T04:02:33.616Z,6.48
2022-10-06T04:05:20.554Z,6.46
2022-10-06T04:08:00.495Z,6.45
2022-10-06T04:10:47.536Z,6.47
2022-10-06T04:13:23.592Z,6.50
2022-10-06T04:16:24.642Z,6.50
2022-10-06T04:19:00.608Z,6.48
2022-10-06T04:21:49.531Z,6.45
2022-10-06T04:24:22.616Z,6.44
2022-10-06T04:27:28.537Z,6.43
2022-10-06T04:30:08.543Z,6.43
2022-10-06T04:32:55.526Z,6.39
2022-10-06T04:35:28.594Z,6.38
2022-10-06T04:38:15.540Z,6.38
2022-10-06T04:40:55.522Z,6.43
2022-10-06T04:43:42.545Z,6.48
2022-10-06T04:46:41.481Z,6.46
2022-10-06T04:49:23.541Z,6.47
2022-10-06T04:51:56.604Z,6.46
2022-10-06T04:54:43.519Z,6.47
2022-10-06T04:57:16.657Z,6.47
2022-10-06T05:00:21.520Z,6.49
2022-10-06T05:02:55.932Z,6.50
2022-10-06T05:05:42.541Z,6.53
2022-10-06T05:08:22.529Z,6.55
2022-10-06T05:11:22.481Z,6.61
2022-10-06T05:14:11.516Z,6.65
2022-10-06T05:16:51.605Z,6.69
2022-10-06T05:19:38.552Z,6.73
2022-10-06T05:22:11.631Z,6.77
2022-10-06T05:25:00.542Z,6.80
2022-10-06T05:27:40.537Z,6.81
2022-10-06T05:30:27.549Z,6.83
2022-10-06T05:33:07.542Z,6.85
2022-10-06T05:36:15.603Z,6.88
2022-10-06T05:38:49.635Z,6.94
2022-10-06T05:41:38.554Z,6.97
2022-10-06T05:44:18.557Z,7.00
2022-10-06T05:47:12.546Z,7.04
2022-10-06T05:49:59.604Z,7.06
2022-10-06T05:52:32.877Z,7.08
2022-10-06T05:55:19.559Z,7.11
2022-10-06T05:57:59.545Z,7.14
2022-10-06T06:00:46.542Z,7.17
2022-10-06T06:03:19.634Z,7.22
2022-10-06T06:06:06.557Z,7.24
2022-10-06T06:09:01.596Z,7.27
2022-10-06T06:11:51.563Z,7.31
2022-10-06T06:14:53.588Z,7.36
2022-10-06T06:17:47.580Z,7.41
2022-10-06T06:20:41.588Z,7.45
2022-10-06T06:23:28.564Z,7.49
2022-10-06T06:26:13.550Z,7.53
2022-10-06T06:29:02.601Z,7.56
2022-10-06T06:31:37.745Z,7.60
2022-10-06T06:34:24.599Z,7.63
2022-10-06T06:37:06.777Z,7.66
2022-10-06T06:39:55.595Z,7.69
2022-10-06T06:42:28.646Z,7.72
2022-10-06T06:45:15.579Z,7.75
2022-10-06T06:47:49.741Z,7.80
2022-10-06T06:50:36.567Z,7.82
2022-10-06T06:53:14.040Z,7.84
2022-10-06T06:56:02.609Z,7.85
2022-10-06T06:58:35.678Z,7.88
2022-10-06T07:01:25.626Z,7.90
2022-10-06T07:04:01.657Z,7.94
2022-10-06T07:07:05.614Z,7.95
2022-10-06T07:09:52.581Z,7.98
2022-10-06T07:12:25.637Z,8.00
2022-10-06T07:15:31.670Z,8.03
2022-10-06T07:18:29.838Z,8.05
2022-10-06T07:21:44.593Z,8.09
2022-10-06T07:24:49.607Z,8.12
2022-10-06T07:27:22.716Z,8.15
2022-10-06T07:30:12.588Z,8.21
2022-10-06T07:32:45.767Z,8.26
2022-10-06T07:35:32.610Z,8.30
2022-10-06T07:38:16.597Z,8.36
2022-10-06T07:41:19.333Z,8.43
2022-10-06T07:44:13.586Z,8.47
2022-10-06T07:47:08.628Z,8.51
2022-10-06T07:49:55.594Z,8.57
2022-10-06T07:52:28.900Z,8.60
2022-10-06T07:55:15.620Z,8.62
2022-10-06T07:57:51.760Z,8.65
2022-10-06T08:00:39.623Z,8.70
2022-10-06T08:03:17.004Z,8.75
2022-10-06T08:06:06.667Z,8.81
2022-10-06T08:08:40.704Z,8.87
2022-10-06T08:11:28.656Z,8.94
2022-10-06T08:14:01.689Z,9.02
2022-10-06T08:16:48.605Z,9.12
2022-10-06T08:19:28.616Z,9.20
2022-10-06T08:22:16.628Z,9.29
2022-10-06T08:25:05.342Z,9.40
2022-10-06T08:27:55.658Z,9.51
2022-10-06T08:30:35.628Z,9.61
2022-10-06T08:33:29.616Z,9.74
2022-10-06T08:36:30.963Z,9.86
2022-10-06T08:39:18.633Z,9.97
2022-10-06T08:41:56.711Z,10.07
2022-10-06T08:44:56.936Z,10.18
2022-10-06T08:47:34.045Z,10.30
2022-10-06T08:50:20.722Z,10.47
2022-10-06T08:53:02.715Z,10.58
2022-10-06T08:55:57.636Z,10.64
2022-10-06T08:58:56.632Z,10.70
2022-10-06T09:02:01.668Z,10.76
2022-10-06T09:04:48.631Z,10.82
2022-10-06T09:07:38.653Z,10.88
2022-10-06T09:10:50.668Z,10.96
2022-10-06T09:13:50.651Z,11.07
2022-10-06T09:16:28.802Z,11.13
2022-10-06T09:20:01.650Z,11.26
2022-10-06T09:22:38.785Z,11.42
2022-10-06T09:25:28.650Z,11.55
2022-10-06T09:28:03.773Z,11.68
2022-10-06T09:30:55.206Z,11.78
2022-10-06T09:33:32.121Z,11.89
2022-10-06T09:36:18.711Z,12.01
2022-10-06T09:38:55.291Z,12.15
2022-10-06T09:41:45.684Z,12.26
2022-10-06T09:44:33.894Z,12.42
2022-10-06T09:47:35.669Z,12.56
2022-10-06T09:50:12.056Z,12.65
2022-10-06T09:53:11.670Z,12.74
2022-10-06T09:55:44.790Z,12.83
2022-10-06T09:58:40.650Z,12.87
2022-10-06T10:01:15.876Z,12.92
2022-10-06T10:04:20.133Z,13.00
2022-10-06T10:06:54.785Z,13.06
2022-10-06T10:09:41.686Z,13.12
2022-10-06T10:12:31.285Z,13.15
2022-10-06T10:15:17.697Z,13.21
2022-10-06T10:17:59.754Z,13.25
2022-10-06T10:21:14.670Z,13.28
2022-10-06T10:24:05.702Z,13.31
2022-10-06T10:27:20.703Z,13.33
2022-10-06T10:30:05.695Z,13.40
2022-10-06T10:33:10.713Z,13.45
2022-10-06T10:35:54.676Z,13.49
2022-10-06T10:38:51.698Z,13.50
2022-10-06T10:41:47.712Z,13.55
2022-10-06T10:44:41.691Z,13.56
2022-10-06T10:47:44.707Z,13.61
2022-10-06T10:50:36.702Z,13.58
2022-10-06T10:53:42.759Z,13.59
2022-10-06T10:56:32.715Z,13.65
2022-10-06T10:59:21.920Z,13.67
2022-10-06T11:02:25.715Z,13.70
2022-10-06T11:05:11.749Z,13.74
2022-10-06T11:08:10.726Z,13.82
2022-10-06T11:11:08.681Z,13.86
2022-10-06T11:13:59.731Z,13.89
2022-10-06T11:16:58.705Z,13.92
2022-10-06T11:20:01.712Z,14.00
2022-10-06T11:22:57.721Z,14.07
2022-10-06T11:26:10.715Z,14.13
2022-10-06T11:29:16.888Z,14.18
2022-10-06T11:32:23.709Z,14.24
2022-10-06T11:35:34.726Z,14.32
2022-10-06T11:38:25.792Z,14.35
2022-10-06T11:41:35.718Z,14.39
2022-10-06T11:44:30.715Z,14.45
2022-10-06T11:47:45.759Z,14.47
2022-10-06T11:50:37.883Z,14.51
2022-10-06T11:53:45.720Z,14.53
2022-10-06T11:56:31.712Z,14.57
2022-10-06T11:59:30.741Z,14.60
2022-10-06T12:02:04.995Z,14.67
2022-10-06T12:05:52.359Z,14.70
2022-10-06T12:08:18.787Z,14.71
2022-10-06T12:11:05.739Z,14.71
2022-10-06T12:17:24.743Z,14.80
2022-10-06T12:20:36.740Z,14.81
2022-10-06T12:23:47.727Z,14.85
2022-10-06T12:26:36.122Z,14.88
2022-10-06T12:29:34.740Z,14.90
2022-10-06T12:32:47.825Z,14.92
2022-10-06T12:35:38.748Z,14.95
2022-10-06T12:38:37.508Z,14.98
2022-10-06T12:42:01.758Z,14.97
2022-10-06T12:44:50.743Z,14.98
2022-10-06T12:47:54.758Z,14.99
2022-10-06T12:50:50.752Z,14.98
2022-10-06T12:53:52.760Z,14.97
2022-10-06T12:56:42.770Z,14.98
2022-10-06T12:59:40.746Z,14.97
2022-10-06T13:02:30.813Z,14.96
2022-10-06T13:05:13.779Z,14.95
2022-10-06T13:08:15.759Z,14.94
2022-10-06T13:11:24.795Z,14.92
2022-10-06T13:14:19.783Z,14.86
2022-10-06T13:17:03.407Z,14.86
2022-10-06T13:19:50.762Z,14.82
2022-10-06T13:22:23.827Z,14.80
2022-10-06T13:25:10.779Z,14.77
2022-10-06T13:27:45.564Z,14.75
2022-10-06T13:30:36.233Z,14.71
2022-10-06T13:33:20.766Z,14.66
2022-10-06T13:36:09.798Z,14.61
2022-10-06T13:38:54.795Z,14.58
2022-10-06T13:41:44.768Z,14.53
2022-10-06T13:44:18.794Z,14.49
2022-10-06T13:47:09.796Z,14.46
2022-10-06T13:50:17.347Z,14.44
2022-10-06T13:53:05.781Z,14.40
2022-10-06T13:55:45.781Z,14.37
2022-10-06T13:58:42.823Z,14.34
2022-10-06T14:01:44.810Z,14.31
2022-10-06T14:04:34.701Z,14.27
2022-10-06T14:07:17.775Z,14.26
2022-10-06T14:10:11.806Z,14.23
2022-10-06T14:12:58.786Z,14.22
2022-10-06T14:15:34.945Z,14.23
2022-10-06T14:18:26.816Z,14.22
2022-10-06T14:21:01.888Z,14.21
2022-10-06T14:23:57.812Z,14.21
2022-10-06T14:26:37.536Z,14.19
2022-10-06T14:29:24.833Z,14.18
2022-10-06T14:31:57.902Z,14.18
2022-10-06T14:34:45.794Z,14.16
2022-10-06T14:37:18.881Z,14.16
2022-10-06T14:40:10.119Z,14.15
2022-10-06T14:42:51.815Z,14.15
2022-10-06T14:45:45.826Z,14.14
2022-10-06T14:48:34.838Z,14.10
2022-10-06T14:51:09.503Z,14.09
2022-10-06T14:54:00.795Z,14.06
2022-10-06T14:56:37.816Z,14.05
2022-10-06T14:59:24.822Z,14.03
2022-10-06T15:02:04.847Z,14.00
2022-10-06T15:04:51.817Z,14.00
2022-10-06T15:07:49.762Z,13.96
2022-10-06T15:10:44.827Z,13.94
2022-10-06T15:13:31.832Z,13.93
2022-10-06T15:16:12.927Z,13.91
2022-10-06T15:18:59.818Z,13.89
2022-10-06T15:21:40.870Z,13.88
2022-10-06T15:24:27.843Z,13.86
2022-10-06T15:27:24.589Z,13.86
2022-10-06T15:30:11.830Z,13.85
2022-10-06T15:32:44.893Z,13.84
2022-10-06T15:35:31.861Z,13.84
2022-10-06T15:38:05.913Z,13.84
2022-10-06T15:40:45.841Z,13.81
2022-10-06T15:43:45.886Z,13.79
2022-10-06T15:46:25.910Z,13.77
2022-10-06T15:49:12.125Z,13.76
2022-10-06T15:51:57.850Z,13.73
2022-10-06T15:54:49.845Z,13.70
2022-10-06T15:57:31.865Z,13.67
2022-10-06T16:00:11.929Z,13.64
2022-10-06T16:02:51.892Z,13.62
2022-10-06T16:05:49.149Z,13.59
2022-10-06T16:08:42.982Z,13.56
2022-10-06T16:11:36.872Z,13.51
2022-10-06T16:14:30.872Z,13.49
2022-10-06T16:17:18.847Z,13.45
2022-10-06T16:20:01.892Z,13.43
2022-10-06T16:22:55.869Z,13.39
2022-10-06T16:25:42.877Z,13.36
2022-10-06T16:28:15.976Z,13.34
2022-10-06T16:31:02.886Z,13.31
2022-10-06T16:33:35.950Z,13.30
2022-10-06T16:36:23.895Z,13.28
2022-10-06T16:38:58.925Z,13.26
2022-10-06T16:41:45.873Z,13.24
2022-10-06T16:44:18.963Z,13.23
2022-10-06T16:47:05.893Z,13.22
2022-10-06T16:49:45.877Z,13.20
2022-10-06T16:52:32.903Z,13.17
2022-10-06T16:55:05.977Z,13.14
2022-10-06T16:57:52.861Z,13.10
2022-10-06T17:00:32.930Z,13.07
2022-10-06T17:03:26.882Z,13.02
2022-10-06T17:06:26.954Z,12.98
2022-10-06T17:09:22.878Z,12.93
2022-10-06T17:12:11.019Z,12.88
2022-10-06T17:14:43.984Z,12.83
2022-10-06T17:17:30.898Z,12.77
2022-10-06T17:20:10.906Z,12.72
2022-10-06T17:22:58.922Z,12.67
2022-10-06T17:25:32.112Z,12.63
2022-10-06T17:28:18.974Z,12.60
2022-10-06T17:31:05.935Z,12.56
2022-10-06T17:33:53.884Z,12.53
2022-10-06T17:36:28.972Z,12.49
2022-10-06T17:39:18.926Z,12.45
2022-10-06T17:41:59.921Z,12.43
2022-10-06T17:44:53.984Z,12.41
2022-10-06T17:47:40.928Z,12.37
2022-10-06T17:50:14.436Z,12.36
2022-10-06T17:53:00.916Z,12.31
2022-10-06T17:55:33.965Z,12.29
2022-10-06T17:58:20.903Z,12.29
2022-10-06T18:00:55.927Z,12.27
2022-10-06T18:03:44.975Z,12.25
2022-10-06T18:06:25.906Z,12.24
2022-10-06T18:09:19.898Z,12.22
2022-10-06T18:12:08.931Z,12.22
2022-10-06T18:14:43.351Z,12.22
2022-10-06T18:17:30.931Z,12.22
2022-10-06T18:20:13.955Z,12.21
2022-10-06T18:23:00.920Z,12.21
2022-10-06T18:25:34.009Z,12.21
2022-10-06T18:28:20.915Z,12.22
2022-10-06T18:31:03.924Z,12.21
2022-10-06T18:37:13.949Z,12.21
2022-10-06T18:40:11.934Z,12.20
2022-10-06T18:43:05.943Z,12.18
2022-10-06T18:46:10.964Z,12.17
2022-10-06T18:48:55.122Z,12.16
2022-10-06T18:51:44.971Z,12.12
2022-10-06T18:54:31.932Z,12.11
2022-10-06T18:57:20.738Z,12.09
2022-10-06T18:59:57.009Z,12.07
2022-10-06T19:02:48.320Z,12.07
2022-10-06T19:05:28.953Z,12.05
2022-10-06T19:08:22.938Z,12.04
2022-10-06T19:11:36.950Z,12.04
2022-10-06T19:14:42.950Z,12.01
2022-10-06T19:17:30.931Z,11.99
2022-10-06T19:20:11.067Z,11.97
2022-10-06T19:23:04.959Z,11.95
2022-10-06T19:25:58.935Z,11.94
2022-10-06T19:28:52.951Z,11.96
2022-10-06T19:31:39.945Z,11.95
2022-10-06T19:34:22.943Z,11.94
2022-10-06T19:37:16.953Z,11.92
2022-10-06T19:40:03.945Z,11.91
2022-10-06T19:42:57.952Z,11.89
2022-10-06T19:45:45.033Z,11.88
2022-10-06T19:48:22.173Z,11.88
2022-10-06T19:51:20.944Z,11.88
2022-10-06T19:53:54.028Z,11.88
2022-10-06T19:56:40.966Z,11.88
2022-10-06T19:59:27.960Z,11.87
2022-10-06T20:02:21.962Z,11.88
2022-10-06T20:05:15.971Z,11.86
2022-10-06T20:08:10.989Z,11.87
2022-10-06T20:11:04.987Z,11.88
2022-10-06T20:13:58.992Z,11.88
2022-10-06T20:16:48.025Z,11.90
2022-10-06T20:19:21.063Z,11.90
2022-10-06T20:22:07.984Z,11.91
2022-10-06T20:24:47.972Z,11.93
2022-10-06T20:27:42.184Z,11.93
2022-10-06T20:30:28.977Z,11.94
2022-10-06T20:33:13.978Z,11.94
2022-10-06T20:36:07.985Z,11.94
2022-10-06T20:39:13.968Z,11.95
2022-10-06T20:41:55.005Z,11.95
2022-10-06T20:44:41.997Z,11.95
2022-10-06T20:47:25.990Z,11.97
2022-10-06T20:50:13.000Z,12.00
2022-10-06T20:52:53.980Z,12.01
2022-10-06T20:55:47.995Z,12.03
2022-10-06T20:58:35.994Z,12.02
2022-10-06T21:01:15.216Z,12.01
2022-10-06T21:04:02.023Z,12.01
2022-10-06T21:06:35.217Z,12.02
2022-10-06T21:09:35.023Z,12.01
2022-10-06T21:12:29.019Z,12.01
2022-10-06T21:15:19.018Z,12.03
2022-10-06T21:17:52.076Z,12.03
2022-10-06T21:20:43.034Z,12.03
2022-10-06T21:23:18.098Z,12.05
2022-10-06T21:26:08.059Z,12.07
2022-10-06T21:28:42.597Z,12.09
2022-10-06T21:31:32.045Z,12.11
2022-10-06T21:34:12.040Z,12.14
2022-10-06T21:37:06.013Z,12.14
2022-10-06T21:39:53.038Z,12.12
2022-10-06T21:42:26.098Z,12.12
2022-10-06T21:45:13.033Z,12.13
2022-10-06T21:47:46.483Z,12.11
2022-10-06T21:50:33.026Z,12.10
2022-10-06T21:53:06.113Z,12.10
2022-10-06T21:55:53.043Z,12.10
2022-10-06T21:58:33.055Z,12.09
2022-10-06T22:01:20.106Z,12.10
2022-10-06T22:03:54.135Z,12.13
2022-10-06T22:06:43.050Z,12.12
2022-10-06T22:09:27.059Z,12.12
2022-10-06T22:12:21.059Z,12.13
2022-10-06T22:15:08.045Z,12.15
2022-10-06T22:17:41.297Z,12.15
2022-10-06T22:20:28.041Z,12.16
2022-10-06T22:23:08.114Z,12.15
2022-10-06T22:25:48.069Z,12.13
2022-10-06T22:28:28.225Z,12.14
2022-10-06T22:31:10.109Z,12.14
2022-10-06T22:33:51.165Z,12.14
2022-10-06T22:36:32.053Z,12.14
2022-10-06T22:39:19.070Z,12.14
2022-10-06T22:42:06.055Z,12.12
2022-10-06T22:44:39.148Z,12.11
2022-10-06T22:47:26.079Z,12.11
2022-10-06T22:50:06.064Z,12.12
2022-10-06T22:53:00.082Z,12.11
2022-10-06T22:55:47.063Z,12.12
2022-10-06T22:58:29.089Z,12.12
2022-10-06T23:01:18.147Z,12.12
2022-10-06T23:03:59.083Z,12.11
2022-10-06T23:06:53.069Z,12.11
2022-10-06T23:09:40.099Z,12.12
2022-10-06T23:12:13.150Z,12.14
2022-10-06T23:15:00.097Z,12.16
2022-10-06T23:17:33.145Z,12.17
2022-10-06T23:20:20.099Z,12.18
2022-10-06T23:22:53.163Z,12.20
2022-10-06T23:25:44.069Z,12.23
2022-10-06T23:28:24.143Z,12.23
2022-10-06T23:31:13.150Z,12.24
2022-10-06T23:33:46.170Z,12.25
2022-10-06T23:36:33.092Z,12.24
2022-10-06T23:39:14.081Z,12.27
2022-10-06T23:42:01.077Z,12.26
2022-10-06T23:44:34.166Z,12.28
2022-10-06T23:47:21.078Z,12.27
2022-10-06T23:50:01.107Z,12.27
2022-10-06T23:52:55.098Z,12.27
2022-10-06T23:55:44.110Z,12.29
2022-10-06T23:58:17.194Z,12.29
